sensor_id;sensor_type;location;lat;lon;timestamp;pressure;altitude;pressure_sealevel;temperature;humidity
49055;BME280;35405;52.344;14.530;2023-01-09T07:25:36;98957.03;;;3.19;100.00
49055;BME280;35405;52.344;14.530;2023-01-09T07:28:02;98950.03;;;3.18;100.00
49055;BME280;35405;52.344;14.530;2023-01-09T07:30:27;98951.59;;;3.25;100.00
49055;BME280;35405;52.344;14.530;2023-01-09T07:32:52;98948.91;;;3.25;100.00
49055;BME280;35405;52.344;14.530;2023-01-09T07:35:17;98945.94;;;3.26;100.00
49055;BME280;35405;52.344;14.530;2023-01-09T07:37:42;98952.16;;;3.21;100.00
49055;BME280;35405;52.344;14.530;2023-01-09T07:40:08;98950.03;;;3.18;100.00
49055;BME280;35405;52.344;14.530;2023-01-09T07:42:33;98948.19;;;3.19;100.00
49055;BME280;35405;52.344;14.530;2023-01-09T07:44:58;98948.09;;;3.24;100.00
49055;BME280;35405;52.344;14.530;2023-01-09T07:47:23;98938.16;;;3.25;100.00
49055;BME280;35405;52.344;14.530;2023-01-09T07:49:49;98946.72;;;3.27;100.00
49055;BME280;35405;52.344;14.530;2023-01-09T07:52:14;98946.72;;;3.27;100.00
49055;BME280;35405;52.344;14.530;2023-01-09T07:54:39;98942.69;;;3.29;100.00
49055;BME280;35405;52.344;14.530;2023-01-09T07:57:04;98938.91;;;3.30;100.00
49055;BME280;35405;52.344;14.530;2023-01-09T07:59:30;98938.63;;;3.32;100.00
49055;BME280;35405;52.344;14.530;2023-01-09T08:01:55;98934.56;;;3.34;100.00
49055;BME280;35405;52.344;14.530;2023-01-09T08:04:20;98935.63;;;3.33;100.00
49055;BME280;35405;52.344;14.530;2023-01-09T08:06:48;98939.38;;;3.37;100.00
49055;BME280;35405;52.344;14.530;2023-01-09T08:09:14;98944.91;;;3.46;100.00
49055;BME280;35405;52.344;14.530;2023-01-09T08:11:39;98934.09;;;3.51;100.00
49055;BME280;35405;52.344;14.530;2023-01-09T08:14:05;98936.78;;;3.51;100.00
49055;BME280;35405;52.344;14.530;2023-01-09T08:16:30;98943.25;;;3.50;100.00
49055;BME280;35405;52.344;14.530;2023-01-09T08:18:55;98945.94;;;3.50;100.00
49055;BME280;35405;52.344;14.530;2023-01-09T08:21:23;98942.09;;;3.56;100.00
49055;BME280;35405;52.344;14.530;2023-01-09T08:23:51;98947.47;;;3.56;100.00
49055;BME280;35405;52.344;14.530;2023-01-09T08:26:17;98952.84;;;3.56;100.00
49055;BME280;35405;52.344;14.530;2023-01-09T08:28:43;98955.47;;;3.61;100.00
49055;BME280;35405;52.344;14.530;2023-01-09T08:31:08;98953.59;;;3.62;100.00
49055;BME280;35405;52.344;14.530;2023-01-09T08:33:33;98960.28;;;3.64;100.00
49055;BME280;35405;52.344;14.530;2023-01-09T08:35:59;98958.66;;;3.63;100.00
49055;BME280;35405;52.344;14.530;2023-01-09T08:38:24;98949.53;;;3.64;100.00
49055;BME280;35405;52.344;14.530;2023-01-09T08:40:49;98957.50;;;3.70;100.00
49055;BME280;35405;52.344;14.530;2023-01-09T08:43:14;98954.75;;;3.75;100.00
49055;BME280;35405;52.344;14.530;2023-01-09T08:45:58;98956.34;;;3.76;100.00
49055;BME280;35405;52.344;14.530;2023-01-09T08:48:42;98956.88;;;3.78;100.00
49055;BME280;35405;52.344;14.530;2023-01-09T08:51:07;98963.50;;;3.85;100.00
49055;BME280;35405;52.344;14.530;2023-01-09T08:53:33;98962.91;;;3.88;100.00
49055;BME280;35405;52.344;14.530;2023-01-09T08:55:58;98959.34;;;3.93;100.00
49055;BME280;35405;52.344;14.530;2023-01-09T08:58:23;98959.34;;;3.93;100.00
49055;BME280;35405;52.344;14.530;2023-01-09T09:00:48;98957.25;;;3.90;100.00
49055;BME280;35405;52.344;14.530;2023-01-09T09:03:13;98953.38;;;3.96;100.00
49055;BME280;35405;52.344;14.530;2023-01-09T09:05:39;98950.44;;;3.98;100.00
49055;BME280;35405;52.344;14.530;2023-01-09T09:08:04;98948.53;;;3.98;100.00
49055;BME280;35405;52.344;14.530;2023-01-09T09:10:30;98952.81;;;3.99;100.00
49055;BME280;35405;52.344;14.530;2023-01-09T09:12:56;98966.25;;;3.99;100.00
49055;BME280;35405;52.344;14.530;2023-01-09T09:15:25;98958.91;;;4.05;100.00
49055;BME280;35405;52.344;14.530;2023-01-09T09:17:51;98958.34;;;4.08;100.00
49055;BME280;35405;52.344;14.530;2023-01-09T09:20:18;98960.22;;;4.07;100.00
49055;BME280;35405;52.344;14.530;2023-01-09T09:22:44;98960.75;;;4.09;100.00
49055;BME280;35405;52.344;14.530;2023-01-09T09:25:10;98957.03;;;4.05;100.00
49055;BME280;35405;52.344;14.530;2023-01-09T09:27:35;98953.53;;;4.05;100.00
49055;BME280;35405;52.344;14.530;2023-01-09T09:30:01;98956.44;;;4.08;100.00
49055;BME280;35405;52.344;14.530;2023-01-09T09:32:26;98960.75;;;4.09;100.00
49055;BME280;35405;52.344;14.530;2023-01-09T09:34:52;98958.84;;;4.10;100.00
49055;BME280;35405;52.344;14.530;2023-01-09T09:37:17;98957.75;;;4.11;100.00
49055;BME280;35405;52.344;14.530;2023-01-09T09:39:42;98956.38;;;4.13;100.00
49055;BME280;35405;52.344;14.530;2023-01-09T09:47:43;98958.69;;;4.20;100.00
49055;BME280;35405;52.344;14.530;2023-01-09T09:52:44;98949.56;;;4.21;100.00
49055;BME280;35405;52.344;14.530;2023-01-09T09:55:17;98946.69;;;4.31;100.00
49055;BME280;35405;52.344;14.530;2023-01-09T09:57:42;98949.81;;;4.39;100.00
49055;BME280;35405;52.344;14.530;2023-01-09T10:00:09;98941.06;;;4.47;100.00
49055;BME280;35405;52.344;14.530;2023-01-09T10:02:53;98939.03;;;4.57;100.00
49055;BME280;35405;52.344;14.530;2023-01-09T10:05:23;98950.59;;;4.72;100.00
49055;BME280;35405;52.344;14.530;2023-01-09T10:07:50;98940.38;;;4.88;100.00
49055;BME280;35405;52.344;14.530;2023-01-09T10:10:30;98943.59;;;5.03;100.00
49055;BME280;35405;52.344;14.530;2023-01-09T10:12:57;98948.28;;;4.98;100.00
49055;BME280;35405;52.344;14.530;2023-01-09T10:20:55;98965.97;;;4.71;100.00
49055;BME280;35405;52.344;14.530;2023-01-09T10:26:00;98953.44;;;4.80;100.00
49055;BME280;35405;52.344;14.530;2023-01-09T10:39:19;98958.97;;;5.17;100.00
49055;BME280;35405;52.344;14.530;2023-01-09T10:42:20;98961.38;;;5.18;100.00
49055;BME280;35405;52.344;14.530;2023-01-09T10:45:01;98950.59;;;5.32;100.00
49055;BME280;35405;52.344;14.530;2023-01-09T10:47:25;98952.31;;;5.28;100.00
49055;BME280;35405;52.344;14.530;2023-01-09T10:49:51;98954.00;;;5.24;100.00
49055;BME280;35405;52.344;14.530;2023-01-09T10:52:18;98954.81;;;5.24;100.00
49055;BME280;35405;52.344;14.530;2023-01-09T10:55:18;98959.41;;;5.24;100.00
49055;BME280;35405;52.344;14.530;2023-01-09T10:57:39;98971.16;;;5.28;100.00
49055;BME280;35405;52.344;14.530;2023-01-09T11:00:05;98968.66;;;5.32;100.00
49055;BME280;35405;52.344;14.530;2023-01-09T11:02:32;98972.38;;;5.36;100.00
49055;BME280;35405;52.344;14.530;2023-01-09T11:04:58;98963.78;;;5.34;100.00
49055;BME280;35405;52.344;14.530;2023-01-09T11:07:25;98954.69;;;5.43;100.00
49055;BME280;35405;52.344;14.530;2023-01-09T11:09:59;98960.00;;;5.48;100.00
49055;BME280;35405;52.344;14.530;2023-01-09T11:12:28;98959.91;;;5.54;100.00
49055;BME280;35405;52.344;14.530;2023-01-09T11:14:54;98963.59;;;5.58;100.00
49055;BME280;35405;52.344;14.530;2023-01-09T11:17:20;98958.66;;;5.73;100.00
49055;BME280;35405;52.344;14.530;2023-01-09T11:20:02;98962.25;;;5.83;100.00
49055;BME280;35405;52.344;14.530;2023-01-09T11:22:27;98963.25;;;5.87;100.00
49055;BME280;35405;52.344;14.530;2023-01-09T11:24:58;98958.84;;;5.91;100.00
49055;BME280;35405;52.344;14.530;2023-01-09T11:27:24;98966.56;;;5.98;100.00
49055;BME280;35405;52.344;14.530;2023-01-09T11:30:04;98961.34;;;6.01;100.00
49055;BME280;35405;52.344;14.530;2023-01-09T11:32:30;98970.63;;;6.09;100.00
49055;BME280;35405;52.344;14.530;2023-01-09T11:34:56;98975.72;;;6.10;100.00
49055;BME280;35405;52.344;14.530;2023-01-09T11:37:25;98974.31;;;6.13;100.00
49055;BME280;35405;52.344;14.530;2023-01-09T11:39:51;98965.50;;;6.21;100.00
49055;BME280;35405;52.344;14.530;2023-01-09T11:42:21;98971.59;;;6.27;100.00
49055;BME280;35405;52.344;14.530;2023-01-09T11:45:52;98968.28;;;6.30;100.00
49055;BME280;35405;52.344;14.530;2023-01-09T11:47:57;98981.16;;;6.33;100.00
49055;BME280;35405;52.344;14.530;2023-01-09T11:50:24;98975.44;;;6.34;100.00
49055;BME280;35405;52.344;14.530;2023-01-09T11:53:12;98984.47;;;6.30;100.00
49055;BME280;35405;52.344;14.530;2023-01-09T11:55:35;98990.97;;;6.29;100.00
49055;BME280;35405;52.344;14.530;2023-01-09T11:58:00;98988.28;;;6.29;100.00
49055;BME280;35405;52.344;14.530;2023-01-09T12:00:29;98998.75;;;6.30;100.00
49055;BME280;35405;52.344;14.530;2023-01-09T12:03:06;98995.63;;;6.37;100.00
49055;BME280;35405;52.344;14.530;2023-01-09T12:10:42;98999.03;;;6.43;100.00
49055;BME280;35405;52.344;14.530;2023-01-09T12:16:11;98998.06;;;6.61;100.00
49055;BME280;35405;52.344;14.530;2023-01-09T12:21:38;98982.84;;;6.65;100.00
49055;BME280;35405;52.344;14.530;2023-01-09T12:29:14;99016.91;;;6.75;100.00
49055;BME280;35405;52.344;14.530;2023-01-09T12:34:32;99031.09;;;6.80;100.00
49055;BME280;35405;52.344;14.530;2023-01-09T12:39:46;99033.53;;;6.91;100.00
49055;BME280;35405;52.344;14.530;2023-01-09T12:53:13;99045.53;;;6.98;100.00
49055;BME280;35405;52.344;14.530;2023-01-09T12:55:41;99052.22;;;7.01;100.00
49055;BME280;35405;52.344;14.530;2023-01-09T12:58:16;99047.13;;;6.99;100.00
49055;BME280;35405;52.344;14.530;2023-01-09T13:00:44;99055.47;;;7.12;100.00
49055;BME280;35405;52.344;14.530;2023-01-09T13:03:14;99056.25;;;7.12;100.00
49055;BME280;35405;52.344;14.530;2023-01-09T13:05:49;99061.06;;;7.15;100.00
49055;BME280;35405;52.344;14.530;2023-01-09T13:08:17;99063.56;;;7.12;100.00
49055;BME280;35405;52.344;14.530;2023-01-09T13:10:46;99071.75;;;7.20;100.00
49055;BME280;35405;52.344;14.530;2023-01-09T13:13:14;99061.91;;;7.24;100.00
49055;BME280;35405;52.344;14.530;2023-01-09T13:15:45;99063.41;;;7.39;100.00
49055;BME280;35405;52.344;14.530;2023-01-09T13:20:46;99071.31;;;7.58;100.00
49055;BME280;35405;52.344;14.530;2023-01-09T13:25:57;99085.94;;;7.26;100.00
49055;BME280;35405;52.344;14.530;2023-01-09T13:28:27;99082.44;;;7.25;100.00
49055;BME280;35405;52.344;14.530;2023-01-09T13:31:12;99091.47;;;7.21;100.00
49055;BME280;35405;52.344;14.530;2023-01-09T13:33:42;99085.25;;;7.20;100.00
49055;BME280;35405;52.344;14.530;2023-01-09T13:36:18;99086.25;;;7.02;100.00
49055;BME280;35405;52.344;14.530;2023-01-09T13:38:46;99092.56;;;6.97;100.00
49055;BME280;35405;52.344;14.530;2023-01-09T13:41:13;99101.09;;;6.91;100.00
49055;BME280;35405;52.344;14.530;2023-01-09T13:44:43;99102.16;;;6.81;100.00
49055;BME280;35405;52.344;14.530;2023-01-09T13:46:52;99102.56;;;6.74;100.00
49055;BME280;35405;52.344;14.530;2023-01-09T13:51:57;99113.56;;;6.78;100.00
49055;BME280;35405;52.344;14.530;2023-01-09T13:57:15;99116.75;;;6.80;100.00
49055;BME280;35405;52.344;14.530;2023-01-09T13:59:45;99117.75;;;6.48;100.00
49055;BME280;35405;52.344;14.530;2023-01-09T14:04:56;99125.78;;;6.11;100.00
49055;BME280;35405;52.344;14.530;2023-01-09T14:07:21;99131.34;;;6.01;100.00
49055;BME280;35405;52.344;14.530;2023-01-09T14:09:49;99135.25;;;5.95;100.00
49055;BME280;35405;52.344;14.530;2023-01-09T14:12:15;99144.09;;;5.82;100.00
49055;BME280;35405;52.344;14.530;2023-01-09T14:14:43;99145.81;;;5.78;100.00
49055;BME280;35405;52.344;14.530;2023-01-09T14:17:16;99145.59;;;5.74;100.00
49055;BME280;35405;52.344;14.530;2023-01-09T14:19:43;99149.78;;;5.66;100.00
49055;BME280;35405;52.344;14.530;2023-01-09T14:22:21;99142.75;;;5.65;100.00
49055;BME280;35405;52.344;14.530;2023-01-09T14:24:50;99157.44;;;5.59;100.00
49055;BME280;35405;52.344;14.530;2023-01-09T14:32:45;99184.44;;;5.40;100.00
49055;BME280;35405;52.344;14.530;2023-01-09T14:35:26;99177.59;;;5.29;100.00
49055;BME280;35405;52.344;14.530;2023-01-09T14:37:58;99184.41;;;5.26;100.00
49055;BME280;35405;52.344;14.530;2023-01-09T14:40:24;99184.69;;;5.25;100.00
49055;BME280;35405;52.344;14.530;2023-01-09T14:42:50;99193.38;;;5.22;100.00
49055;BME280;35405;52.344;14.530;2023-01-09T14:45:17;99197.81;;;5.13;100.00
49055;BME280;35405;52.344;14.530;2023-01-09T14:47:47;99207.59;;;5.09;100.00
49055;BME280;35405;52.344;14.530;2023-01-09T14:52:50;99214.63;;;5.04;100.00
49055;BME280;35405;52.344;14.530;2023-01-09T14:55:23;99223.94;;;4.93;100.00
49055;BME280;35405;52.344;14.530;2023-01-09T14:57:50;99225.19;;;4.82;100.00
49055;BME280;35405;52.344;14.530;2023-01-09T15:00:19;99225.94;;;4.64;100.00
49055;BME280;35405;52.344;14.530;2023-01-09T15:02:44;99228.53;;;4.50;100.00
49055;BME280;35405;52.344;14.530;2023-01-09T15:05:12;99229.66;;;4.44;100.00
49055;BME280;35405;52.344;14.530;2023-01-09T15:07:41;99230.03;;;4.37;100.00
49055;BME280;35405;52.344;14.530;2023-01-09T15:10:18;99229.84;;;4.28;100.00
49055;BME280;35405;52.344;14.530;2023-01-09T15:12:44;99236.63;;;4.21;100.00
49055;BME280;35405;52.344;14.530;2023-01-09T15:15:11;99247.41;;;4.21;100.00
49055;BME280;35405;52.344;14.530;2023-01-09T15:17:38;99245.06;;;4.14;100.00
49055;BME280;35405;52.344;14.530;2023-01-09T15:20:06;99240.28;;;4.06;100.00
49055;BME280;35405;52.344;14.530;2023-01-09T15:22:33;99247.09;;;3.98;100.00
49055;BME280;35405;52.344;14.530;2023-01-09T15:24:58;99254.75;;;3.86;100.00
49055;BME280;35405;52.344;14.530;2023-01-09T15:27:45;99268.75;;;3.83;100.00
49055;BME280;35405;52.344;14.530;2023-01-09T15:30:15;99266.94;;;3.73;100.00
49055;BME280;35405;52.344;14.530;2023-01-09T15:32:40;99269.13;;;3.66;100.00
49055;BME280;35405;52.344;14.530;2023-01-09T15:35:11;99269.47;;;3.59;100.00
49055;BME280;35405;52.344;14.530;2023-01-09T15:37:37;99275.41;;;3.51;100.00
49055;BME280;35405;52.344;14.530;2023-01-09T15:40:06;99272.81;;;3.41;100.00
49055;BME280;35405;52.344;14.530;2023-01-09T15:42:33;99281.44;;;3.38;100.00
49055;BME280;35405;52.344;14.530;2023-01-09T15:45:23;99275.25;;;3.37;100.00
49055;BME280;35405;52.344;14.530;2023-01-09T15:47:49;99275.81;;;3.34;100.00
49055;BME280;35405;52.344;14.530;2023-01-09T15:50:15;99280.88;;;3.41;100.00
49055;BME280;35405;52.344;14.530;2023-01-09T15:52:42;99290.28;;;3.43;100.00
49055;BME280;35405;52.344;14.530;2023-01-09T15:55:23;99286.97;;;3.52;100.00
49055;BME280;35405;52.344;14.530;2023-01-09T15:57:51;99281.88;;;3.55;100.00
49055;BME280;35405;52.344;14.530;2023-01-09T16:00:36;99293.66;;;3.59;100.00
49055;BME280;35405;52.344;14.530;2023-01-09T16:03:18;99277.59;;;3.49;100.00
49055;BME280;35405;52.344;14.530;2023-01-09T16:06:00;99279.78;;;3.42;100.00
49055;BME280;35405;52.344;14.530;2023-01-09T16:08:50;99281.78;;;3.21;100.00
49055;BME280;35405;52.344;14.530;2023-01-09T16:11:30;99286.91;;;3.17;100.00
49055;BME280;35405;52.344;14.530;2023-01-09T16:13:57;99294.91;;;3.28;100.00
49055;BME280;35405;52.344;14.530;2023-01-09T16:16:27;99286.78;;;3.43;100.00
49055;BME280;35405;52.344;14.530;2023-01-09T16:18:54;99290.38;;;3.67;100.00
49055;BME280;35405;52.344;14.530;2023-01-09T16:23:52;99286.13;;;3.96;100.00
49055;BME280;35405;52.344;14.530;2023-01-09T16:26:19;99283.06;;;4.07;100.00
49055;BME280;35405;52.344;14.530;2023-01-09T16:28:45;99278.91;;;4.20;100.00
49055;BME280;35405;52.344;14.530;2023-01-09T16:31:20;99279.31;;;4.32;100.00
49055;BME280;35405;52.344;14.530;2023-01-09T16:34:03;99270.88;;;4.39;100.00
49055;BME280;35405;52.344;14.530;2023-01-09T16:36:30;99271.72;;;4.40;100.00
49055;BME280;35405;52.344;14.530;2023-01-09T16:38:57;99274.69;;;4.38;100.00
49055;BME280;35405;52.344;14.530;2023-01-09T16:41:24;99281.38;;;4.41;100.00
49055;BME280;35405;52.344;14.530;2023-01-09T16:44:08;99279.22;;;4.43;100.00
49055;BME280;35405;52.344;14.530;2023-01-09T16:46:35;99281.91;;;4.43;100.00
49055;BME280;35405;52.344;14.530;2023-01-09T16:49:02;99283.06;;;4.37;100.00
49055;BME280;35405;52.344;14.530;2023-01-09T16:51:27;99289.38;;;4.22;100.00
49055;BME280;35405;52.344;14.530;2023-01-09T16:53:53;99292.81;;;3.98;100.00
49055;BME280;35405;52.344;14.530;2023-01-09T16:56:19;99303.16;;;3.81;100.00
49055;BME280;35405;52.344;14.530;2023-01-09T16:58:48;99302.47;;;3.70;100.00
49055;BME280;35405;52.344;14.530;2023-01-09T17:01:14;99308.41;;;3.67;100.00
49055;BME280;35405;52.344;14.530;2023-01-09T17:03:40;99311.78;;;3.83;100.00
49055;BME280;35405;52.344;14.530;2023-01-09T17:06:05;99323.44;;;4.02;100.00
49055;BME280;35405;52.344;14.530;2023-01-09T17:08:32;99319.28;;;4.15;100.00
49055;BME280;35405;52.344;14.530;2023-01-09T17:10:58;99323.47;;;4.31;100.00
49055;BME280;35405;52.344;14.530;2023-01-09T17:13:23;99328.19;;;4.45;100.00
49055;BME280;35405;52.344;14.530;2023-01-09T17:15:49;99327.78;;;4.56;100.00
49055;BME280;35405;52.344;14.530;2023-01-09T17:18:15;99324.53;;;4.59;100.00
49055;BME280;35405;52.344;14.530;2023-01-09T17:20:45;99316.41;;;4.65;100.00
49055;BME280;35405;52.344;14.530;2023-01-09T17:23:10;99329.00;;;4.69;100.00
49055;BME280;35405;52.344;14.530;2023-01-09T17:25:36;99322.53;;;4.70;100.00
49055;BME280;35405;52.344;14.530;2023-01-09T17:28:20;99327.13;;;4.70;100.00
49055;BME280;35405;52.344;14.530;2023-01-09T17:31:08;99329.53;;;4.71;100.00
49055;BME280;35405;52.344;14.530;2023-01-09T17:33:34;99332.44;;;4.75;100.00
49055;BME280;35405;52.344;14.530;2023-01-09T17:36:03;99325.19;;;4.75;100.00
49055;BME280;35405;52.344;14.530;2023-01-09T17:38:30;99331.88;;;4.78;100.00
49055;BME280;35405;52.344;14.530;2023-01-09T17:40:55;99332.41;;;4.80;100.00
49055;BME280;35405;52.344;14.530;2023-01-09T17:43:21;99330.72;;;4.84;100.00
49055;BME280;35405;52.344;14.530;2023-01-09T17:45:47;99336.38;;;4.88;100.00
49055;BME280;35405;52.344;14.530;2023-01-09T17:48:12;99330.97;;;4.88;100.00
49055;BME280;35405;52.344;14.530;2023-01-09T17:50:39;99333.66;;;4.88;100.00
49055;BME280;35405;52.344;14.530;2023-01-09T17:53:04;99322.59;;;4.89;100.00
49055;BME280;35405;52.344;14.530;2023-01-09T17:55:29;99313.94;;;4.92;100.00
49055;BME280;35405;52.344;14.530;2023-01-09T17:57:55;99318.53;;;4.92;100.00
49055;BME280;35405;52.344;14.530;2023-01-09T18:00:27;99327.75;;;4.86;100.00
49055;BME280;35405;52.344;14.530;2023-01-09T18:02:53;99337.72;;;4.85;100.00
49055;BME280;35405;52.344;14.530;2023-01-09T18:05:19;99339.22;;;4.72;100.00
49055;BME280;35405;52.344;14.530;2023-01-09T18:07:45;99350.97;;;4.57;100.00
49055;BME280;35405;52.344;14.530;2023-01-09T18:10:14;99362.28;;;4.54;100.00
49055;BME280;35405;52.344;14.530;2023-01-09T18:12:40;99360.91;;;4.57;100.00
49055;BME280;35405;52.344;14.530;2023-01-09T18:15:05;99367.69;;;4.54;100.00
49055;BME280;35405;52.344;14.530;2023-01-09T18:17:30;99364.50;;;4.47;100.00
49055;BME280;35405;52.344;14.530;2023-01-09T18:19:56;99366.50;;;4.37;100.00
49055;BME280;35405;52.344;14.530;2023-01-09T18:22:21;99372.81;;;4.22;100.00
49055;BME280;35405;52.344;14.530;2023-01-09T18:24:46;99377.19;;;4.12;100.00
49055;BME280;35405;52.344;14.530;2023-01-09T18:27:11;99379.38;;;4.05;100.00
49055;BME280;35405;52.344;14.530;2023-01-09T18:29:37;99381.03;;;4.01;100.00
49055;BME280;35405;52.344;14.530;2023-01-09T18:32:02;99387.22;;;4.02;100.00
49055;BME280;35405;52.344;14.530;2023-01-09T18:34:27;99383.97;;;4.00;100.00
49055;BME280;35405;52.344;14.530;2023-01-09T18:36:52;99392.09;;;3.95;100.00
49055;BME280;35405;52.344;14.530;2023-01-09T18:39:17;99404.47;;;3.96;100.00
49055;BME280;35405;52.344;14.530;2023-01-09T18:41:43;99413.63;;;3.95;100.00
49055;BME280;35405;52.344;14.530;2023-01-09T18:44:08;99407.97;;;3.91;100.00
49055;BME280;35405;52.344;14.530;2023-01-09T18:46:33;99412.31;;;3.87;100.00
49055;BME280;35405;52.344;14.530;2023-01-09T18:49:02;99421.81;;;3.74;100.00
49055;BME280;35405;52.344;14.530;2023-01-09T18:51:28;99423.22;;;3.61;100.00
49055;BME280;35405;52.344;14.530;2023-01-09T18:53:54;99429.47;;;3.47;100.00
49055;BME280;35405;52.344;14.530;2023-01-09T18:56:19;99429.00;;;3.34;100.00
49055;BME280;35405;52.344;14.530;2023-01-09T18:58:45;99434.63;;;3.33;100.00
49055;BME280;35405;52.344;14.530;2023-01-09T19:01:11;99442.13;;;3.41;100.00
49055;BME280;35405;52.344;14.530;2023-01-09T19:03:38;99439.69;;;3.44;100.00
49055;BME280;35405;52.344;14.530;2023-01-09T19:06:03;99448.84;;;3.43;100.00
49055;BME280;35405;52.344;14.530;2023-01-09T19:08:29;99447.50;;;3.46;100.00
49055;BME280;35405;52.344;14.530;2023-01-09T19:10:54;99448.00;;;3.48;100.00
49055;BME280;35405;52.344;14.530;2023-01-09T19:13:19;99449.34;;;3.46;100.00
49055;BME280;35405;52.344;14.530;2023-01-09T19:15:44;99443.97;;;3.46;100.00
49055;BME280;35405;52.344;14.530;2023-01-09T19:18:10;99448.84;;;3.38;100.00
49055;BME280;35405;52.344;14.530;2023-01-09T19:20:38;99447.81;;;3.29;100.00
49055;BME280;35405;52.344;14.530;2023-01-09T19:23:03;99459.41;;;3.19;100.00
49055;BME280;35405;52.344;14.530;2023-01-09T19:25:28;99458.84;;;3.17;100.00
49055;BME280;35405;52.344;14.530;2023-01-09T19:27:54;99458.84;;;3.17;100.00
49055;BME280;35405;52.344;14.530;2023-01-09T19:30:20;99457.50;;;3.15;100.00
49055;BME280;35405;52.344;14.530;2023-01-09T19:32:45;99461.53;;;3.23;100.00
49055;BME280;35405;52.344;14.530;2023-01-09T19:35:11;99463.09;;;3.34;100.00
49055;BME280;35405;52.344;14.530;2023-01-09T19:37:36;99463.56;;;3.51;100.00
49055;BME280;35405;52.344;14.530;2023-01-09T19:40:01;99459.78;;;3.57;100.00
49055;BME280;35405;52.344;14.530;2023-01-09T19:42:26;99452.25;;;3.59;100.00
49055;BME280;35405;52.344;14.530;2023-01-09T19:44:52;99465.19;;;3.52;100.00
49055;BME280;35405;52.344;14.530;2023-01-09T19:47:17;99462.28;;;3.33;100.00
49055;BME280;35405;52.344;14.530;2023-01-09T19:49:42;99463.44;;;3.12;100.00
49055;BME280;35405;52.344;14.530;2023-01-09T19:52:07;99468.28;;;3.00;100.00
49055;BME280;35405;52.344;14.530;2023-01-09T19:54:32;99475.28;;;2.90;100.00
49055;BME280;35405;52.344;14.530;2023-01-09T19:56:58;99473.94;;;2.88;100.00
49055;BME280;35405;52.344;14.530;2023-01-09T19:59:24;99473.16;;;2.87;100.00
49055;BME280;35405;52.344;14.530;2023-01-09T20:01:50;99474.78;;;2.83;100.00
49055;BME280;35405;52.344;14.530;2023-01-09T20:04:15;99472.06;;;2.78;100.00
49055;BME280;35405;52.344;14.530;2023-01-09T20:06:42;99473.41;;;2.75;100.00
49055;BME280;35405;52.344;14.530;2023-01-09T20:09:09;99483.34;;;2.75;100.00
49055;BME280;35405;52.344;14.530;2023-01-09T20:11:38;99479.34;;;2.78;100.00
49055;BME280;35405;52.344;14.530;2023-01-09T20:14:15;99483.09;;;2.71;100.00
49055;BME280;35405;52.344;14.530;2023-01-09T20:16:41;99488.72;;;2.70;100.00
49055;BME280;35405;52.344;14.530;2023-01-09T20:19:08;99490.06;;;2.72;100.00
49055;BME280;35405;52.344;14.530;2023-01-09T20:21:33;99492.22;;;2.81;100.00
49055;BME280;35405;52.344;14.530;2023-01-09T20:24:00;99496.25;;;2.78;100.00
49055;BME280;35405;52.344;14.530;2023-01-09T20:26:25;99499.47;;;2.75;100.00
49055;BME280;35405;52.344;14.530;2023-01-09T20:28:51;99519.88;;;2.71;100.00
49055;BME280;35405;52.344;14.530;2023-01-09T20:31:17;99519.59;;;2.72;100.00
49055;BME280;35405;52.344;14.530;2023-01-09T20:33:43;99528.72;;;2.77;100.00
49055;BME280;35405;52.344;14.530;2023-01-09T20:36:09;99533.00;;;2.83;100.00
49055;BME280;35405;52.344;14.530;2023-01-09T20:38:38;99534.63;;;2.84;100.00
49055;BME280;35405;52.344;14.530;2023-01-09T20:41:11;99531.13;;;2.88;100.00
49055;BME280;35405;52.344;14.530;2023-01-09T20:43:46;99531.94;;;2.94;100.00
49055;BME280;35405;52.344;14.530;2023-01-09T20:46:12;99531.97;;;2.89;100.00
49055;BME280;35405;52.344;14.530;2023-01-09T20:48:38;99531.97;;;2.84;100.00
49055;BME280;35405;52.344;14.530;2023-01-09T20:51:03;99524.44;;;2.81;100.00
49055;BME280;35405;52.344;14.530;2023-01-09T20:53:30;99523.88;;;2.73;100.00
49055;BME280;35405;52.344;14.530;2023-01-09T20:55:59;99528.44;;;2.73;100.00
49055;BME280;35405;52.344;14.530;2023-01-09T20:58:24;99535.44;;;2.69;100.00
49055;BME280;35405;52.344;14.530;2023-01-09T21:00:49;99535.44;;;2.74;100.00
49055;BME280;35405;52.344;14.530;2023-01-09T21:03:15;99542.66;;;2.73;100.00
49055;BME280;35405;52.344;14.530;2023-01-09T21:05:40;99553.94;;;2.70;100.00
49055;BME280;35405;52.344;14.530;2023-01-09T21:08:05;99556.38;;;2.72;100.00
49055;BME280;35405;52.344;14.530;2023-01-09T21:10:31;99560.94;;;2.77;100.00
49055;BME280;35405;52.344;14.530;2023-01-09T21:12:56;99566.84;;;2.79;100.00
49055;BME280;35405;52.344;14.530;2023-01-09T21:15:21;99564.16;;;2.79;100.00
49055;BME280;35405;52.344;14.530;2023-01-09T21:17:48;99567.38;;;2.75;100.00
49055;BME280;35405;52.344;14.530;2023-01-09T21:20:13;99565.22;;;2.72;100.00
49055;BME280;35405;52.344;14.530;2023-01-09T21:22:39;99566.03;;;2.73;100.00
49055;BME280;35405;52.344;14.530;2023-01-09T21:25:04;99568.19;;;2.81;100.00
49055;BME280;35405;52.344;14.530;2023-01-09T21:27:29;99572.50;;;2.77;100.00
